createdAt,value
2023-01-26T00:00:28.183Z,-1.4
2023-01-26T00:05:28.631Z,-1.4
2023-01-26T00:10:28.672Z,-1.4
2023-01-26T00:15:28.887Z,-1.4
2023-01-26T00:20:28.973Z,-1.4
2023-01-26T00:25:29.077Z,-1.4
2023-01-26T00:30:28.322Z,-1.4
2023-01-26T00:35:28.530Z,-1.4
2023-01-26T00:40:28.700Z,-1.4
2023-01-26T00:45:28.915Z,-1.4
2023-01-26T00:50:28.972Z,-1.4
2023-01-26T00:55:29.176Z,-1.4
2023-01-26T01:00:28.329Z,-1.4
2023-01-26T01:05:28.478Z,-1.4
2023-01-26T01:10:28.824Z,-1.3
2023-01-26T01:15:28.978Z,-1.3
2023-01-26T01:20:29.146Z,-1.3
2023-01-26T01:25:29.181Z,-1.3
2023-01-26T01:30:28.348Z,-1.3
2023-01-26T01:35:28.737Z,-1.3
2023-01-26T01:40:28.966Z,-1.3
2023-01-26T01:45:28.281Z,-1.3
2023-01-26T01:50:28.435Z,-1.3
2023-01-26T01:55:28.503Z,-1.3
2023-01-26T02:00:28.894Z,-1.3
2023-01-26T02:05:29.227Z,-1.3
2023-01-26T02:10:28.392Z,-1.3
2023-01-26T02:15:28.502Z,-1.3
2023-01-26T02:20:28.686Z,-1.3
2023-01-26T02:25:28.809Z,-1.3
2023-01-26T02:30:28.936Z,-1.2
2023-01-26T02:35:29.045Z,-1.2
2023-01-26T02:40:28.581Z,-1.2
2023-01-26T02:45:28.706Z,-1.2
2023-01-26T02:50:28.770Z,-1.2
2023-01-26T02:55:28.992Z,-1.2
2023-01-26T03:00:28.822Z,-1.2
2023-01-26T03:05:29.023Z,-1.2
2023-01-26T03:10:29.177Z,-1.2
2023-01-26T03:15:28.545Z,-1.2
2023-01-26T03:20:28.672Z,-1.2
2023-01-26T03:25:28.939Z,-1.2
2023-01-26T03:30:28.445Z,-1.2
2023-01-26T03:35:29.088Z,-1.2
2023-01-26T03:40:28.531Z,-1.2
2023-01-26T03:45:28.716Z,-1.2
2023-01-26T03:50:28.960Z,-1.1
2023-01-26T03:55:29.261Z,-1.1
2023-01-26T04:00:28.365Z,-1.1
2023-01-26T04:05:28.400Z,-1.1
2023-01-26T04:10:28.412Z,-1.1
2023-01-26T04:15:28.892Z,-1.1
2023-01-26T04:20:28.330Z,-1.1
2023-01-26T04:25:28.375Z,-1.1
2023-01-26T04:30:28.663Z,-1.1
2023-01-26T04:35:29.054Z,-1.1
2023-01-26T04:40:29.287Z,-1.1
2023-01-26T04:45:28.539Z,-1.1
2023-01-26T04:50:28.860Z,-1
2023-01-26T04:55:29.055Z,-1
2023-01-26T05:00:29.141Z,-0.9
2023-01-26T05:05:29.233Z,-0.9
2023-01-26T05:10:29.281Z,-0.9
2023-01-26T05:15:28.413Z,-0.9
2023-01-26T05:20:28.511Z,-0.9
2023-01-26T05:25:28.886Z,-0.9
2023-01-26T05:30:28.736Z,-0.9
2023-01-26T05:35:28.385Z,-0.9
2023-01-26T05:40:28.836Z,-0.9
2023-01-26T05:45:28.982Z,-0.9
2023-01-26T05:50:29.002Z,-0.8
2023-01-26T05:55:28.435Z,-0.8
2023-01-26T06:00:29.006Z,-0.8
2023-01-26T06:05:29.030Z,-0.8
2023-01-26T06:10:29.341Z,-0.8
2023-01-26T06:15:28.500Z,-0.8
2023-01-26T06:20:38.773Z,-0.8
2023-01-26T06:25:29.203Z,-0.8
2023-01-26T06:30:29.431Z,-0.7
2023-01-26T06:35:28.404Z,-0.7
2023-01-26T06:40:28.832Z,-0.7
2023-01-26T06:45:28.336Z,-0.7
2023-01-26T06:50:28.490Z,-0.7
2023-01-26T06:55:28.562Z,-0.7
2023-01-26T07:00:28.601Z,-0.7
2023-01-26T07:05:28.676Z,-0.7
2023-01-26T07:10:29.097Z,-0.6
2023-01-26T07:15:29.402Z,-0.6
2023-01-26T07:20:28.401Z,-0.6
2023-01-26T07:25:28.517Z,-0.6
2023-01-26T07:30:28.893Z,-0.6
2023-01-26T07:35:28.694Z,-0.6
2023-01-26T07:40:29.116Z,-0.5
2023-01-26T07:45:29.308Z,-0.5
2023-01-26T07:50:28.440Z,-0.4
2023-01-26T07:55:28.744Z,-0.4
2023-01-26T08:00:28.899Z,-0.4
2023-01-26T08:05:29.304Z,-0.4
2023-01-26T08:10:28.839Z,-0.4
2023-01-26T08:15:29.062Z,-0.4
2023-01-26T08:20:29.033Z,-0.3
2023-01-26T08:25:29.299Z,-0.3
2023-01-26T08:30:28.668Z,-0.3
2023-01-26T08:35:28.731Z,-0.3
2023-01-26T08:40:28.856Z,-0.2
2023-01-26T08:45:30.779Z,-0.2
2023-01-26T08:50:28.941Z,-0.2
2023-01-26T08:55:29.149Z,-0.2
2023-01-26T09:00:28.639Z,-0.1
2023-01-26T09:05:33.913Z,-0.1
2023-01-26T09:10:28.878Z,0
2023-01-26T09:15:28.721Z,0
2023-01-26T09:20:29.385Z,0.1
2023-01-26T09:25:28.639Z,0.1
2023-01-26T09:30:29.160Z,0.2
2023-01-26T09:35:28.783Z,0.2
2023-01-26T09:40:29.409Z,0.2
2023-01-26T09:45:29.486Z,0.2
2023-01-26T09:50:28.618Z,0.3
2023-01-26T09:55:28.774Z,0.3
2023-01-26T10:00:29.152Z,0.4
2023-01-26T10:05:29.459Z,0.4
2023-01-26T10:10:28.791Z,0.4
2023-01-26T10:15:29.463Z,0.4
2023-01-26T10:20:28.632Z,0.5
2023-01-26T10:25:28.712Z,0.5
2023-01-26T10:30:29.133Z,0.6
2023-01-26T10:35:29.446Z,0.6
2023-01-26T10:40:29.480Z,0.6
2023-01-26T10:45:28.974Z,0.6
2023-01-26T10:50:29.537Z,0.6
2023-01-26T10:55:28.598Z,0.6
2023-01-26T11:00:28.708Z,0.7
2023-01-26T11:05:28.702Z,0.7
2023-01-26T11:10:28.822Z,0.8
2023-01-26T11:15:29.362Z,0.8
2023-01-26T11:20:29.410Z,0.8
2023-01-26T11:25:29.424Z,0.8
2023-01-26T11:30:28.545Z,0.9
2023-01-26T11:35:29.107Z,0.9
2023-01-26T11:40:29.373Z,0.9
2023-01-26T11:45:29.491Z,0.9
2023-01-26T11:50:28.653Z,1
2023-01-26T11:55:28.721Z,1
2023-01-26T12:00:30.421Z,1.1
2023-01-26T12:05:29.188Z,1.1
2023-01-26T12:10:29.091Z,1.2
2023-01-26T12:15:29.071Z,1.2
2023-01-26T12:20:28.968Z,1.2
2023-01-26T12:25:29.252Z,1.2
2023-01-26T12:30:28.914Z,1.3
2023-01-26T12:35:29.507Z,1.3
2023-01-26T12:40:28.765Z,1.4
2023-01-26T12:45:29.086Z,1.4
2023-01-26T12:50:29.172Z,1.6
2023-01-26T12:55:28.826Z,1.6
2023-01-26T13:00:29.395Z,1.7
2023-01-26T13:05:29.483Z,1.7
2023-01-26T13:10:29.923Z,1.8
2023-01-26T13:15:28.874Z,1.8
2023-01-26T13:20:29.240Z,1.9
2023-01-26T13:25:29.332Z,1.9
2023-01-26T13:30:28.948Z,2
2023-01-26T13:35:29.386Z,2
2023-01-26T13:40:31.135Z,2.1
2023-01-26T13:45:29.540Z,2.1
2023-01-26T13:50:28.601Z,2.2
2023-01-26T13:55:28.667Z,2.2
2023-01-26T14:00:28.732Z,2.3
2023-01-26T14:05:28.741Z,2.3
2023-01-26T14:10:28.865Z,2.3
2023-01-26T14:15:29.134Z,2.3
2023-01-26T14:20:29.186Z,2.3
2023-01-26T14:25:29.698Z,2.3
2023-01-26T14:30:29.416Z,2.3
2023-01-26T14:35:29.762Z,2.3
2023-01-26T14:40:28.995Z,2.2
2023-01-26T14:45:29.191Z,2.2
2023-01-26T14:50:29.335Z,2.2
2023-01-26T14:55:29.401Z,2.2
2023-01-26T15:00:29.510Z,2.1
2023-01-26T15:05:29.190Z,2.1
2023-01-26T15:10:29.563Z,2.1
2023-01-26T15:15:29.339Z,2.1
2023-01-26T15:20:29.189Z,2.1
2023-01-26T15:25:29.661Z,2.1
2023-01-26T15:30:31.052Z,2.1
2023-01-26T15:35:28.848Z,2.1
2023-01-26T15:40:29.037Z,2.1
2023-01-26T15:45:32.181Z,2.1
2023-01-26T15:50:30.274Z,2.1
2023-01-26T15:55:29.195Z,2.1
2023-01-26T16:00:29.767Z,2.1
2023-01-26T16:05:29.447Z,2.1
2023-01-26T16:10:29.476Z,2.1
2023-01-26T16:15:28.962Z,2.1
2023-01-26T16:20:29.473Z,2.1
2023-01-26T16:25:29.021Z,2.1
2023-01-26T16:30:29.511Z,2.2
2023-01-26T16:35:28.704Z,2.2
2023-01-26T16:40:29.817Z,2.2
2023-01-26T16:45:29.415Z,2.2
2023-01-26T16:50:31.570Z,2.2
2023-01-26T16:55:29.694Z,2.2
2023-01-26T17:00:29.583Z,2.3
2023-01-26T17:05:31.268Z,2.3
2023-01-26T17:10:29.805Z,2.3
2023-01-26T17:15:28.975Z,2.3
2023-01-26T17:20:29.570Z,2.4
2023-01-26T17:25:29.718Z,2.4
2023-01-26T17:30:30.805Z,2.6
2023-01-26T17:35:29.090Z,2.6
2023-01-26T17:40:29.121Z,2.7
2023-01-26T17:45:29.301Z,2.7
2023-01-26T17:50:29.441Z,2.8
2023-01-26T17:55:29.674Z,2.8
2023-01-26T18:00:28.887Z,2.8
2023-01-26T18:05:28.933Z,2.8
2023-01-26T18:10:28.965Z,2.9
2023-01-26T18:15:29.816Z,2.9
2023-01-26T18:20:28.809Z,2.9
2023-01-26T18:25:29.142Z,2.9
2023-01-26T18:30:29.285Z,2.9
2023-01-26T18:35:29.605Z,2.9
2023-01-26T18:40:29.900Z,2.9
2023-01-26T18:45:29.023Z,2.9
2023-01-26T18:50:29.148Z,2.9
2023-01-26T18:55:29.322Z,2.9
2023-01-26T19:00:29.955Z,3.1
2023-01-26T19:05:29.078Z,3.1
2023-01-26T19:10:29.559Z,3.1
2023-01-26T19:15:29.101Z,3.1
2023-01-26T19:20:29.718Z,3.2
2023-01-26T19:25:29.854Z,3.2
2023-01-26T19:30:28.883Z,3.3
2023-01-26T19:35:29.001Z,3.3
2023-01-26T19:40:29.134Z,3.4
2023-01-26T19:45:29.306Z,3.4
2023-01-26T19:50:29.550Z,3.4
2023-01-26T19:55:29.630Z,3.4
2023-01-26T20:00:29.967Z,3.5
2023-01-26T20:05:28.995Z,3.5
2023-01-26T20:10:29.059Z,3.6
2023-01-26T20:15:29.124Z,3.6
2023-01-26T20:20:29.066Z,3.6
2023-01-26T20:25:29.178Z,3.6
2023-01-26T20:30:29.702Z,3.6
2023-01-26T20:35:29.742Z,3.6
2023-01-26T20:40:29.881Z,3.6
2023-01-26T20:45:29.879Z,3.6
2023-01-26T20:50:29.060Z,3.6
2023-01-26T20:55:29.249Z,3.6
2023-01-26T21:00:29.343Z,3.7
2023-01-26T21:05:29.391Z,3.7
2023-01-26T21:10:29.661Z,3.7
2023-01-26T21:15:29.058Z,3.7
2023-01-26T21:20:29.795Z,3.7
2023-01-26T21:25:29.891Z,3.7
2023-01-26T21:30:29.151Z,3.7
2023-01-26T21:35:29.501Z,3.7
2023-01-26T21:40:29.484Z,3.7
2023-01-26T21:45:29.730Z,3.7
2023-01-26T21:50:29.904Z,3.7
2023-01-26T21:55:29.280Z,3.7
2023-01-26T22:00:31.701Z,3.8
2023-01-26T22:05:29.055Z,3.8
2023-01-26T22:10:29.117Z,3.8
2023-01-26T22:20:29.828Z,3.8
2023-01-26T22:25:29.953Z,3.8
2023-01-26T22:30:29.957Z,3.8
2023-01-26T22:35:29.231Z,3.8
2023-01-26T22:40:29.345Z,3.9
2023-01-26T22:45:29.318Z,3.9
2023-01-26T22:50:29.529Z,3.9
2023-01-26T22:55:29.480Z,3.9
2023-01-26T23:00:29.741Z,4
2023-01-26T23:05:29.828Z,4
2023-01-26T23:10:29.328Z,4.1
2023-01-26T23:15:29.356Z,4.1
2023-01-26T23:20:29.416Z,4.1
2023-01-26T23:25:29.568Z,4.1
2023-01-26T23:30:29.819Z,4.1
2023-01-26T23:35:29.846Z,4.1
2023-01-26T23:40:29.880Z,4.1
2023-01-26T23:45:29.879Z,4.1
2023-01-26T23:50:29.869Z,4.1
2023-01-26T23:55:30.060Z,4.1
